Time;durP1;ratioP1;P1;durP2;ratioP2;P2;SDS_P1;SDS_P2;PMS_P1;PMS_P2;Temp;Humidity;BMP_temperature;BMP_pressure;BME280_temperature;BME280_humidity;BME280_pressure;Samples;Min_cycle;Max_cycle;Signal;HPM_P1;HPM_P2
2023/02/23 00:01:20;;;;;;;3.28;2.85;;;;;;;;;;5087398;28;20380;-45
2023/02/23 00:03:48;;;;;;;3.58;2.83;;;;;;;;;;5086916;28;20067;-44
2023/02/23 00:06:14;;;;;;;5.00;3.05;;;;;;;;;;5087336;28;20031;-43
2023/02/23 00:08:40;;;;;;;4.28;2.97;;;;;;;;;;5086648;28;20570;-44
2023/02/23 00:11:08;;;;;;;4.38;3.22;;;;;;;;;;5086897;28;20146;-44
2023/02/23 00:13:36;;;;;;;4.03;3.15;;;;;;;;;;5087880;28;20475;-44
2023/02/23 00:16:11;;;;;;;3.83;2.65;;;;;;;;;;5086818;28;20067;-45
2023/02/23 00:18:50;;;;;;;3.47;2.58;;;;;;;;;;5087157;28;20020;-44
2023/02/23 00:21:17;;;;;;;4.60;2.75;;;;;;;;;;5087819;28;20376;-43
2023/02/23 00:23:53;;;;;;;3.97;2.70;;;;;;;;;;5087950;28;20023;-44
2023/02/23 00:26:20;;;;;;;3.63;3.03;;;;;;;;;;5087945;28;20525;-44
2023/02/23 00:28:47;;;;;;;6.63;3.15;;;;;;;;;;5088037;28;20024;-43
2023/02/23 00:31:13;;;;;;;4.55;3.30;;;;;;;;;;5087878;28;20507;-44
2023/02/23 00:33:40;;;;;;;4.68;3.33;;;;;;;;;;5087013;28;20571;-46
2023/02/23 00:36:07;;;;;;;4.65;3.47;;;;;;;;;;5087592;28;20099;-45
2023/02/23 00:38:35;;;;;;;4.70;3.22;;;;;;;;;;5086999;28;20020;-43
2023/02/23 00:41:05;;;;;;;4.20;3.10;;;;;;;;;;5087712;28;20026;-44
2023/02/23 00:43:35;;;;;;;3.85;2.95;;;;;;;;;;5087607;28;20031;-43
2023/02/23 00:46:04;;;;;;;4.63;3.33;;;;;;;;;;5087680;28;20059;-44
2023/02/23 00:48:30;;;;;;;5.70;3.42;;;;;;;;;;5087372;28;20027;-44
2023/02/23 00:51:04;;;;;;;4.45;3.30;;;;;;;;;;5087351;28;20083;-45
2023/02/23 00:53:30;;;;;;;5.50;3.60;;;;;;;;;;5087612;28;20035;-44
2023/02/23 00:55:57;;;;;;;5.30;3.53;;;;;;;;;;5087191;28;20109;-45
2023/02/23 00:58:24;;;;;;;5.57;3.55;;;;;;;;;;5087237;28;20028;-44
2023/02/23 01:00:50;;;;;;;4.90;3.70;;;;;;;;;;5086872;28;20028;-44
2023/02/23 01:03:16;;;;;;;5.78;3.83;;;;;;;;;;5087259;28;20024;-43
2023/02/23 06:12:11;;;;;;;8.70;5.57;;;;;;;;;;5082178;28;20412;-44
2023/02/23 06:14:37;;;;;;;9.20;5.57;;;;;;;;;;5085909;28;20051;-47
2023/02/23 06:17:04;;;;;;;7.68;5.25;;;;;;;;;;5086031;28;20020;-43
2023/02/23 06:19:31;;;;;;;8.35;5.68;;;;;;;;;;5086725;28;20028;-46
2023/02/23 06:21:58;;;;;;;6.93;4.70;;;;;;;;;;5085908;28;20416;-45
2023/02/23 06:24:24;;;;;;;10.32;5.57;;;;;;;;;;5086265;28;20054;-46
2023/02/23 06:26:50;;;;;;;8.23;5.38;;;;;;;;;;5085980;28;20024;-44
2023/02/23 06:29:16;;;;;;;8.13;4.97;;;;;;;;;;5086308;28;20055;-44
2023/02/23 06:31:42;;;;;;;9.15;6.30;;;;;;;;;;5085877;28;20035;-44
2023/02/23 06:34:09;;;;;;;8.43;5.82;;;;;;;;;;5068130;28;20028;-44
2023/02/23 06:36:36;;;;;;;7.68;5.57;;;;;;;;;;5066675;28;20031;-47
2023/02/23 06:39:02;;;;;;;8.18;5.57;;;;;;;;;;5069625;28;20147;-44
2023/02/23 06:41:28;;;;;;;8.63;5.78;;;;;;;;;;5069408;28;20538;-45
2023/02/23 06:43:54;;;;;;;8.10;5.68;;;;;;;;;;5069617;28;20021;-44
2023/02/23 06:46:20;;;;;;;7.20;5.20;;;;;;;;;;5069009;28;20036;-44
2023/02/23 06:48:47;;;;;;;8.43;5.80;;;;;;;;;;5069924;28;20127;-44
2023/02/23 06:51:13;;;;;;;8.63;5.90;;;;;;;;;;5069453;28;20055;-46
2023/02/23 06:53:39;;;;;;;8.70;5.68;;;;;;;;;;5069278;28;20028;-45
2023/02/23 06:56:05;;;;;;;7.10;5.45;;;;;;;;;;5068389;28;20039;-43
2023/02/23 06:58:32;;;;;;;7.60;5.30;;;;;;;;;;5069012;28;20044;-45
2023/02/23 07:00:58;;;;;;;7.97;5.80;;;;;;;;;;5069046;28;20415;-44
2023/02/23 07:03:25;;;;;;;9.75;6.03;;;;;;;;;;5069721;28;20021;-45
2023/02/23 07:05:52;;;;;;;9.32;5.85;;;;;;;;;;5069201;28;20032;-45
2023/02/23 07:08:19;;;;;;;8.15;5.45;;;;;;;;;;5069345;28;20187;-47
2023/02/23 07:10:46;;;;;;;7.65;5.75;;;;;;;;;;5069383;28;20107;-45
2023/02/23 07:13:12;;;;;;;8.13;5.90;;;;;;;;;;5076862;28;20050;-46
2023/02/23 07:15:39;;;;;;;8.80;6.40;;;;;;;;;;5088943;28;20694;-45
2023/02/23 07:18:05;;;;;;;9.18;5.85;;;;;;;;;;5089447;28;20028;-46
2023/02/23 07:20:32;;;;;;;8.63;5.88;;;;;;;;;;5090483;28;20035;-45
2023/02/23 07:22:59;;;;;;;8.38;5.55;;;;;;;;;;5090077;28;20020;-47
2023/02/23 07:25:26;;;;;;;8.13;5.72;;;;;;;;;;5090342;28;20051;-46
2023/02/23 07:27:52;;;;;;;9.43;6.68;;;;;;;;;;5089404;28;20020;-44
2023/02/23 07:30:23;;;;;;;8.20;6.25;;;;;;;;;;5090181;28;20062;-45
2023/02/23 07:32:50;;;;;;;7.88;5.63;;;;;;;;;;5090394;28;20081;-46
2023/02/23 07:35:16;;;;;;;9.88;6.55;;;;;;;;;;5089553;28;20111;-44
2023/02/23 07:37:43;;;;;;;9.02;6.10;;;;;;;;;;5089938;28;20103;-47
2023/02/23 07:40:09;;;;;;;11.57;7.50;;;;;;;;;;5089259;28;20486;-44
2023/02/23 07:42:35;;;;;;;16.08;8.60;;;;;;;;;;5087734;28;20054;-46
2023/02/23 07:45:01;;;;;;;16.10;8.93;;;;;;;;;;5089353;28;20036;-45
2023/02/23 07:47:30;;;;;;;18.10;9.98;;;;;;;;;;5072079;28;20510;-46
2023/02/23 07:50:01;;;;;;;16.92;9.52;;;;;;;;;;5089228;28;20059;-45
2023/02/23 07:52:27;;;;;;;14.13;8.55;;;;;;;;;;5088539;28;20028;-47
2023/02/23 07:54:53;;;;;;;13.02;7.82;;;;;;;;;;5069786;28;20640;-45
2023/02/23 07:57:20;;;;;;;14.07;8.32;;;;;;;;;;5089887;28;20042;-44
2023/02/23 07:59:49;;;;;;;13.10;8.05;;;;;;;;;;5089473;28;20047;-44
2023/02/23 08:02:15;;;;;;;12.60;7.80;;;;;;;;;;5089768;28;20028;-46
2023/02/23 08:04:42;;;;;;;10.93;7.15;;;;;;;;;;5088885;28;20024;-46
2023/02/23 08:07:08;;;;;;;12.13;7.57;;;;;;;;;;5089657;28;20065;-45
2023/02/23 08:09:34;;;;;;;9.82;6.82;;;;;;;;;;5089377;28;20192;-45
2023/02/23 08:12:01;;;;;;;12.80;6.95;;;;;;;;;;5089479;28;20027;-45
2023/02/23 08:14:27;;;;;;;11.65;7.20;;;;;;;;;;5089392;28;20135;-45
2023/02/23 08:16:53;;;;;;;10.23;6.90;;;;;;;;;;5087469;28;20110;-45
2023/02/23 08:19:22;;;;;;;10.48;6.75;;;;;;;;;;5070291;28;20107;-45
2023/02/23 08:21:51;;;;;;;10.65;7.18;;;;;;;;;;5089285;28;20028;-45
2023/02/23 08:24:17;;;;;;;10.10;6.53;;;;;;;;;;5078258;28;20614;-44
2023/02/23 08:26:43;;;;;;;9.63;6.30;;;;;;;;;;5068983;28;20021;-48
2023/02/23 08:29:09;;;;;;;8.35;5.75;;;;;;;;;;5068271;28;20090;-47
2023/02/23 08:31:36;;;;;;;10.60;6.18;;;;;;;;;;5068521;28;20067;-46
2023/02/23 08:34:02;;;;;;;8.32;5.63;;;;;;;;;;5068395;28;20028;-46
2023/02/23 08:36:28;;;;;;;7.70;5.60;;;;;;;;;;5089286;28;20024;-45
2023/02/23 08:38:54;;;;;;;7.85;5.47;;;;;;;;;;5089172;28;20642;-44
2023/02/23 08:41:20;;;;;;;6.38;4.72;;;;;;;;;;5079588;28;20606;-46
2023/02/23 08:43:47;;;;;;;8.43;5.45;;;;;;;;;;5048048;28;20415;-45
2023/02/23 08:46:17;;;;;;;8.90;5.55;;;;;;;;;;5047707;28;20029;-45
2023/02/23 08:48:43;;;;;;;7.68;5.10;;;;;;;;;;5047544;28;20025;-45
2023/02/23 08:51:09;;;;;;;8.93;5.07;;;;;;;;;;5062078;28;20055;-46
2023/02/23 08:53:35;;;;;;;6.85;5.32;;;;;;;;;;5067607;28;20044;-47
2023/02/23 08:56:04;;;;;;;5.82;4.50;;;;;;;;;;5063012;28;20575;-46
2023/02/23 08:58:31;;;;;;;6.18;4.80;;;;;;;;;;5057818;28;20033;-44
2023/02/23 09:00:58;;;;;;;8.35;5.78;;;;;;;;;;5055041;28;20418;-46
2023/02/23 09:03:25;;;;;;;9.00;5.78;;;;;;;;;;5061903;28;20024;-46
2023/02/23 09:05:51;;;;;;;6.85;4.97;;;;;;;;;;5069496;28;20377;-45
2023/02/23 09:08:18;;;;;;;7.07;4.68;;;;;;;;;;5050633;28;20029;-48
2023/02/23 09:10:44;;;;;;;5.75;4.35;;;;;;;;;;5048645;28;20048;-45
2023/02/23 09:13:11;;;;;;;5.75;4.70;;;;;;;;;;5056655;28;20094;-45
2023/02/23 09:15:38;;;;;;;7.22;5.07;;;;;;;;;;5081056;28;20032;-45
2023/02/23 09:18:06;;;;;;;8.00;5.03;;;;;;;;;;5088299;28;20376;-49
2023/02/23 09:20:32;;;;;;;6.75;4.90;;;;;;;;;;5088224;28;20503;-46
2023/02/23 09:22:59;;;;;;;7.85;5.15;;;;;;;;;;5088071;28;20467;-47
2023/02/23 09:25:26;;;;;;;6.97;4.75;;;;;;;;;;5088248;28;20398;-47
2023/02/23 09:27:52;;;;;;;6.30;4.55;;;;;;;;;;5087969;28;20114;-45
2023/02/23 09:30:19;;;;;;;7.07;5.30;;;;;;;;;;5088399;28;20391;-45
2023/02/23 09:32:49;;;;;;;7.18;5.03;;;;;;;;;;5088324;28;20028;-45
2023/02/23 09:35:16;;;;;;;6.75;4.63;;;;;;;;;;5088406;28;20028;-45
2023/02/23 09:37:50;;;;;;;7.45;4.53;;;;;;;;;;5088364;28;20020;-46
2023/02/23 09:40:19;;;;;;;6.38;4.60;;;;;;;;;;5088557;28;20067;-45
2023/02/23 09:42:45;;;;;;;7.55;4.57;;;;;;;;;;5088004;28;20503;-45
2023/02/23 09:45:27;;;;;;;6.22;4.57;;;;;;;;;;5088085;28;20028;-45
2023/02/23 09:48:02;;;;;;;5.85;4.60;;;;;;;;;;5088306;28;20394;-45
2023/02/23 09:50:30;;;;;;;11.45;6.55;;;;;;;;;;5087953;28;20547;-46
2023/02/23 09:53:04;;;;;;;9.98;7.18;;;;;;;;;;5087416;28;20499;-45
2023/02/23 09:55:31;;;;;;;14.18;8.90;;;;;;;;;;5088098;28;20025;-45
2023/02/23 09:58:02;;;;;;;10.65;7.35;;;;;;;;;;5087586;28;20024;-45
2023/02/23 10:00:28;;;;;;;9.02;6.88;;;;;;;;;;5087575;28;20028;-45
2023/02/23 10:02:57;;;;;;;12.43;8.50;;;;;;;;;;5087456;28;20024;-44
2023/02/23 10:05:24;;;;;;;11.63;7.80;;;;;;;;;;5087905;28;20028;-48
2023/02/23 10:08:14;;;;;;;9.80;6.68;;;;;;;;;;5086702;28;20032;-45
2023/02/23 10:10:44;;;;;;;9.63;6.55;;;;;;;;;;5049625;28;20043;-47
2023/02/23 10:13:28;;;;;;;9.70;5.97;;;;;;;;;;5090981;28;20040;-49
2023/02/23 10:16:08;;;;;;;7.15;4.70;;;;;;;;;;5091438;28;20028;-46
2023/02/23 10:18:55;;;;;;;6.00;3.97;;;;;;;;;;5088427;28;20510;-48
2023/02/23 10:21:24;;;;;;;4.72;3.70;;;;;;;;;;5090128;28;20056;-45
2023/02/23 10:23:59;;;;;;;7.72;4.78;;;;;;;;;;5091531;28;20414;-45
2023/02/23 10:26:30;;;;;;;7.10;4.53;;;;;;;;;;5090528;28;20393;-46
2023/02/23 10:28:58;;;;;;;6.70;4.72;;;;;;;;;;5090912;28;20392;-45
2023/02/23 10:31:30;;;;;;;11.95;6.38;;;;;;;;;;5091288;28;20030;-46
2023/02/23 10:33:58;;;;;;;10.60;7.57;;;;;;;;;;5091228;28;20067;-46
2023/02/23 10:36:36;;;;;;;9.75;6.50;;;;;;;;;;5091251;28;20602;-48
2023/02/23 10:39:06;;;;;;;7.82;5.05;;;;;;;;;;5091316;28;20021;-46
2023/02/23 10:41:35;;;;;;;6.70;4.50;;;;;;;;;;5090990;28;20128;-45
2023/02/23 10:44:01;;;;;;;6.00;4.13;;;;;;;;;;5090988;28;20035;-45
2023/02/23 10:46:31;;;;;;;6.00;3.83;;;;;;;;;;5091084;28;20032;-48
2023/02/23 10:48:59;;;;;;;4.88;3.88;;;;;;;;;;5090989;28;20032;-45
2023/02/23 10:51:28;;;;;;;6.57;3.50;;;;;;;;;;5091253;28;20031;-45
2023/02/23 10:53:54;;;;;;;4.90;3.30;;;;;;;;;;5090434;28;20035;-45
2023/02/23 10:56:20;;;;;;;3.72;3.13;;;;;;;;;;5091521;28;20044;-46
2023/02/23 10:58:49;;;;;;;6.53;4.22;;;;;;;;;;5091963;28;20049;-48
2023/02/23 11:01:30;;;;;;;4.65;3.75;;;;;;;;;;5091891;28;20091;-49
2023/02/23 11:03:59;;;;;;;4.32;3.47;;;;;;;;;;5092064;28;20028;-47
2023/02/23 11:06:33;;;;;;;3.80;2.83;;;;;;;;;;5091041;28;20030;-46
2023/02/23 11:08:59;;;;;;;;;;;;;;;;;;5088579;28;20024;-45
2023/02/23 11:11:30;;;;;;;3.38;2.72;;;;;;;;;;5091326;28;20011;-46
2023/02/23 11:13:56;;;;;;;2.70;2.30;;;;;;;;;;5090559;28;20078;-48
2023/02/23 11:16:28;;;;;;;2.83;2.53;;;;;;;;;;5089799;28;20059;-45
2023/02/23 11:18:55;;;;;;;2.88;2.17;;;;;;;;;;5090481;28;20495;-45
2023/02/23 11:21:23;;;;;;;3.22;2.25;;;;;;;;;;5089096;28;20078;-48
2023/02/23 11:23:52;;;;;;;2.28;2.05;;;;;;;;;;5089785;28;20016;-47
2023/02/23 11:26:38;;;;;;;2.10;1.90;;;;;;;;;;5072151;28;20028;-46
2023/02/23 11:29:16;;;;;;;2.20;2.00;;;;;;;;;;5089950;28;20471;-48
2023/02/23 11:31:46;;;;;;;2.95;2.10;;;;;;;;;;5090239;28;20039;-46
2023/02/23 11:34:19;;;;;;;5.35;2.80;;;;;;;;;;5090559;28;20062;-45
2023/02/23 11:36:57;;;;;;;4.93;2.90;;;;;;;;;;5070367;28;20060;-45
2023/02/23 11:39:23;;;;;;;3.97;2.63;;;;;;;;;;5070076;28;20047;-47
2023/02/23 11:42:09;;;;;;;3.92;3.00;;;;;;;;;;5076295;28;20031;-47
2023/02/23 11:44:35;;;;;;;6.47;4.25;;;;;;;;;;5089192;28;20441;-46
2023/02/23 11:47:02;;;;;;;3.90;2.92;;;;;;;;;;5089402;28;20032;-46
2023/02/23 11:49:35;;;;;;;4.28;3.30;;;;;;;;;;5089947;28;20024;-46
2023/02/23 11:52:02;;;;;;;4.60;3.00;;;;;;;;;;5090612;28;20040;-47
2023/02/23 11:54:30;;;;;;;3.55;2.97;;;;;;;;;;5090879;28;20107;-45
2023/02/23 11:56:56;;;;;;;4.68;3.20;;;;;;;;;;5090809;28;20039;-47
2023/02/23 11:59:41;;;;;;;4.85;3.10;;;;;;;;;;5090335;28;20490;-46
2023/02/23 12:02:18;;;;;;;4.13;3.20;;;;;;;;;;5070660;28;20039;-46
2023/02/23 12:04:46;;;;;;;3.72;2.58;;;;;;;;;;5086002;28;20475;-48
2023/02/23 12:07:25;;;;;;;2.92;2.42;;;;;;;;;;5090923;28;20028;-47
2023/02/23 12:10:00;;;;;;;4.18;2.70;;;;;;;;;;5080612;28;20135;-49
2023/02/23 12:12:28;;;;;;;2.95;2.40;;;;;;;;;;5089894;28;20466;-49
2023/02/23 12:14:59;;;;;;;3.13;2.22;;;;;;;;;;5090304;28;20031;-46
2023/02/23 12:17:27;;;;;;;2.55;1.95;;;;;;;;;;5102681;28;20032;-45
2023/02/23 12:20:03;;;;;;;3.35;2.55;;;;;;;;;;5090119;28;20028;-47
2023/02/23 12:22:39;;;;;;;2.22;2.00;;;;;;;;;;5090022;28;20031;-48
2023/02/23 12:25:25;;;;;;;2.78;2.42;;;;;;;;;;5089397;28;20142;-47
2023/02/23 12:28:14;;;;;;;3.00;2.05;;;;;;;;;;5080012;28;20051;-45
2023/02/23 12:30:53;;;;;;;2.17;1.98;;;;;;;;;;5078202;28;20123;-46
2023/02/23 12:33:32;;;;;;;2.05;1.80;;;;;;;;;;5088785;28;20016;-45
2023/02/23 12:36:20;;;;;;;3.30;2.17;;;;;;;;;;5089396;28;20024;-45
2023/02/23 12:38:47;;;;;;;4.20;2.33;;;;;;;;;;5090360;28;20503;-45
2023/02/23 12:41:15;;;;;;;2.60;2.40;;;;;;;;;;5090103;28;20069;-47
2023/02/23 12:43:48;;;;;;;3.47;2.30;;;;;;;;;;5089334;28;20059;-46
2023/02/23 12:46:30;;;;;;;2.45;1.92;;;;;;;;;;5089299;28;20504;-49
2023/02/23 12:49:02;;;;;;;2.50;2.22;;;;;;;;;;5088525;28;20056;-46
2023/02/23 12:51:40;;;;;;;2.90;2.13;;;;;;;;;;5089819;28;20034;-48
2023/02/23 12:54:08;;;;;;;3.00;2.05;;;;;;;;;;5089936;28;20524;-46
2023/02/23 12:56:34;;;;;;;3.47;2.50;;;;;;;;;;5089512;28;20036;-48
2023/02/23 12:59:13;;;;;;;2.60;1.63;;;;;;;;;;5088145;28;20333;-46
2023/02/23 13:01:59;;;;;;;2.28;1.83;;;;;;;;;;5087978;28;20020;-45
2023/02/23 13:04:33;;;;;;;2.63;1.85;;;;;;;;;;5088289;28;20027;-49
2023/02/23 13:07:19;;;;;;;2.40;2.05;;;;;;;;;;5088232;28;20472;-48
2023/02/23 13:09:51;;;;;;;3.10;2.22;;;;;;;;;;5088994;28;20028;-47
2023/02/23 13:12:17;;;;;;;2.67;2.10;;;;;;;;;;5088569;28;20115;-50
2023/02/23 13:14:46;;;;;;;4.78;2.90;;;;;;;;;;5087056;28;20844;-49
2023/02/23 13:17:32;;;;;;;3.63;2.63;;;;;;;;;;5087046;28;20032;-48
2023/02/23 13:20:03;;;;;;;3.38;1.98;;;;;;;;;;5083363;28;20028;-50
2023/02/23 13:22:35;;;;;;;2.50;2.28;;;;;;;;;;5085632;28;20027;-50
2023/02/23 13:25:02;;;;;;;3.45;2.63;;;;;;;;;;5086451;28;20020;-48
2023/02/23 13:27:32;;;;;;;2.25;1.77;;;;;;;;;;5086539;28;20510;-50
2023/02/23 13:29:58;;;;;;;5.18;3.45;;;;;;;;;;5086140;28;20028;-48
2023/02/23 13:32:35;;;;;;;5.47;3.20;;;;;;;;;;5086667;28;20055;-47
2023/02/23 13:35:02;;;;;;;3.55;2.38;;;;;;;;;;5086736;28;20136;-48
2023/02/23 13:37:33;;;;;;;3.45;2.10;;;;;;;;;;5086062;28;20031;-47
2023/02/23 13:39:59;;;;;;;3.38;2.42;;;;;;;;;;5083177;28;20437;-49
2023/02/23 13:42:26;;;;;;;2.35;1.90;;;;;;;;;;5086706;28;20028;-48
2023/02/23 13:45:13;;;;;;;2.33;1.80;;;;;;;;;;5086352;28;20082;-47
2023/02/23 13:47:49;;;;;;;3.08;2.55;;;;;;;;;;5089387;28;20039;-47
2023/02/23 13:50:18;;;;;;;5.40;3.28;;;;;;;;;;5091353;28;20020;-46
2023/02/23 13:52:45;;;;;;;5.30;3.22;;;;;;;;;;5091037;28;20024;-47
2023/02/23 13:55:26;;;;;;;4.50;2.40;;;;;;;;;;5090360;28;20081;-49
2023/02/23 13:57:53;;;;;;;4.80;2.80;;;;;;;;;;5091021;28;20384;-49
2023/02/23 14:00:20;;;;;;;6.50;2.60;;;;;;;;;;5090951;28;20039;-47
2023/02/23 14:02:46;;;;;;;5.53;2.85;;;;;;;;;;5090730;28;20024;-46
2023/02/23 14:05:23;;;;;;;3.60;2.38;;;;;;;;;;5090762;28;20395;-48
2023/02/23 14:08:04;;;;;;;2.70;2.20;;;;;;;;;;5091162;28;20027;-46
2023/02/23 14:10:36;;;;;;;3.30;2.22;;;;;;;;;;5090511;28;20127;-47
2023/02/23 14:13:02;;;;;;;4.20;2.33;;;;;;;;;;5089905;28;20378;-49
2023/02/23 14:15:40;;;;;;;4.45;2.60;;;;;;;;;;5090542;28;20031;-47
2023/02/23 14:18:32;;;;;;;5.00;2.50;;;;;;;;;;5090420;28;20048;-46
2023/02/23 14:21:10;;;;;;;3.47;1.98;;;;;;;;;;5085927;28;20157;-46
2023/02/23 14:23:49;;;;;;;2.42;1.90;;;;;;;;;;5090197;28;20024;-47
2023/02/23 14:26:27;;;;;;;4.28;2.13;;;;;;;;;;5090432;28;20061;-46
2023/02/23 14:29:12;;;;;;;3.92;2.13;;;;;;;;;;5090122;28;20407;-48
2023/02/23 14:31:38;;;;;;;3.20;2.20;;;;;;;;;;5090276;28;20067;-47
2023/02/23 14:34:09;;;;;;;4.35;2.15;;;;;;;;;;5089882;28;20024;-48
2023/02/23 14:36:36;;;;;;;4.47;2.67;;;;;;;;;;5075234;28;20032;-47
2023/02/23 14:39:07;;;;;;;7.40;3.70;;;;;;;;;;5069405;28;20020;-47
2023/02/23 14:41:38;;;;;;;3.83;2.95;;;;;;;;;;5069381;28;20033;-46
2023/02/23 14:44:08;;;;;;;5.60;3.38;;;;;;;;;;5084489;28;20016;-46
2023/02/23 14:46:35;;;;;;;5.90;2.90;;;;;;;;;;5087239;28;20070;-50
2023/02/23 14:49:06;;;;;;;5.82;3.58;;;;;;;;;;5089749;28;20028;-47
2023/02/23 14:51:47;;;;;;;8.80;4.22;;;;;;;;;;5089975;28;20123;-46
2023/02/23 14:54:23;;;;;;;9.25;4.32;;;;;;;;;;5089522;28;20031;-48
2023/02/23 14:56:51;;;;;;;5.20;3.53;;;;;;;;;;5088954;28;20433;-47
2023/02/23 14:59:19;;;;;;;6.93;3.72;;;;;;;;;;5088285;28;20109;-46
2023/02/23 15:01:46;;;;;;;4.80;2.90;;;;;;;;;;5089339;28;20032;-47
2023/02/23 15:04:13;;;;;;;5.13;2.80;;;;;;;;;;5088863;28;20016;-47
2023/02/23 15:06:40;;;;;;;4.93;2.90;;;;;;;;;;5089708;28;20039;-47
2023/02/23 15:09:11;;;;;;;4.13;2.33;;;;;;;;;;5088585;28;20073;-46
2023/02/23 15:11:37;;;;;;;4.43;2.80;;;;;;;;;;5089447;28;20063;-46
2023/02/23 15:14:03;;;;;;;5.57;2.80;;;;;;;;;;5089347;28;20106;-45
2023/02/23 15:16:34;;;;;;;3.22;2.10;;;;;;;;;;5089139;28;20384;-46
2023/02/23 15:19:01;;;;;;;4.00;2.13;;;;;;;;;;5071237;28;20106;-46
2023/02/23 15:21:27;;;;;;;5.30;2.80;;;;;;;;;;5065172;28;20027;-47
2023/02/23 15:24:06;;;;;;;3.17;2.40;;;;;;;;;;5084298;28;20025;-48
2023/02/23 15:26:36;;;;;;;3.67;1.70;;;;;;;;;;5061144;28;20037;-46
2023/02/23 15:29:04;;;;;;;2.08;1.77;;;;;;;;;;5050415;28;20029;-47
2023/02/23 15:31:33;;;;;;;4.30;2.53;;;;;;;;;;5066445;28;20032;-46
2023/02/23 15:33:59;;;;;;;4.30;2.53;;;;;;;;;;5069102;28;20032;-50
2023/02/23 15:36:33;;;;;;;5.50;2.42;;;;;;;;;;5067236;28;20025;-46
2023/02/23 15:38:59;;;;;;;;;;;;;;;;;;5053693;28;20021;-47
2023/02/23 15:41:28;;;;;;;5.10;2.92;;;;;;;;;;5068152;28;20371;-47
2023/02/23 15:44:01;;;;;;;6.13;3.08;;;;;;;;;;5049209;28;20021;-47
2023/02/23 15:46:28;;;;;;;4.63;2.80;;;;;;;;;;5063299;28;20407;-50
2023/02/23 15:48:57;;;;;;;5.93;2.70;;;;;;;;;;5078019;28;20036;-51
2023/02/23 15:51:23;;;;;;;3.35;2.75;;;;;;;;;;5059227;28;20036;-48
2023/02/23 15:53:51;;;;;;;3.70;2.75;;;;;;;;;;5069284;28;20032;-46
2023/02/23 15:56:24;;;;;;;4.00;2.70;;;;;;;;;;5069211;28;20135;-47
2023/02/23 15:58:53;;;;;;;4.20;3.00;;;;;;;;;;5069417;28;20048;-46
2023/02/23 16:01:23;;;;;;;3.15;2.25;;;;;;;;;;5064859;28;20115;-47
2023/02/23 16:04:13;;;;;;;6.95;3.72;;;;;;;;;;5056068;28;20025;-49
2023/02/23 16:06:51;;;;;;;5.50;3.05;;;;;;;;;;5064427;28;20025;-49
2023/02/23 16:09:20;;;;;;;6.72;4.53;;;;;;;;;;5062645;28;20396;-46
2023/02/23 16:12:10;;;;;;;8.95;4.63;;;;;;;;;;5056084;28;20056;-46
2023/02/23 16:14:43;;;;;;;7.60;4.32;;;;;;;;;;5086519;28;20235;-47
2023/02/23 16:17:19;;;;;;;7.07;4.32;;;;;;;;;;5088813;28;20020;-48
2023/02/23 16:19:45;;;;;;;5.72;4.03;;;;;;;;;;5082640;28;20034;-47
2023/02/23 16:22:31;;;;;;;6.95;4.28;;;;;;;;;;5089207;28;20116;-48
2023/02/23 16:24:59;;;;;;;4.13;2.72;;;;;;;;;;5087615;28;20020;-46
2023/02/23 16:27:26;;;;;;;5.22;3.58;;;;;;;;;;5087717;28;20433;-50
2023/02/23 16:30:15;;;;;;;7.47;3.55;;;;;;;;;;5087818;28;20077;-49
2023/02/23 16:32:42;;;;;;;4.35;3.30;;;;;;;;;;5076981;28;20059;-50
2023/02/23 16:35:13;;;;;;;4.65;3.30;;;;;;;;;;5088136;28;20036;-47
2023/02/23 16:37:58;;;;;;;5.72;2.90;;;;;;;;;;5087650;28;20031;-46
2023/02/23 16:40:25;;;;;;;5.75;3.17;;;;;;;;;;5088156;28;20470;-49
2023/02/23 16:42:51;;;;;;;4.65;3.20;;;;;;;;;;5087609;28;20039;-47
2023/02/23 16:45:17;;;;;;;4.57;2.88;;;;;;;;;;5087828;28;20024;-50
2023/02/23 16:47:46;;;;;;;5.82;4.07;;;;;;;;;;5087624;28;20031;-49
2023/02/23 16:50:18;;;;;;;6.38;3.97;;;;;;;;;;5087539;28;20066;-50
2023/02/23 16:52:50;;;;;;;4.93;3.38;;;;;;;;;;5086553;28;20040;-47
2023/02/23 16:55:17;;;;;;;5.25;3.47;;;;;;;;;;5087501;28;20016;-50
2023/02/23 16:57:44;;;;;;;8.93;5.70;;;;;;;;;;5087533;28;20046;-49
2023/02/23 17:00:16;;;;;;;8.38;5.22;;;;;;;;;;5087745;28;20433;-50
2023/02/23 17:02:43;;;;;;;8.73;5.43;;;;;;;;;;5069997;28;20024;-49
2023/02/23 17:05:17;;;;;;;6.65;4.03;;;;;;;;;;5087311;28;20699;-49
2023/02/23 17:07:44;;;;;;;9.68;4.45;;;;;;;;;;5087497;28;20534;-47
2023/02/23 17:10:22;;;;;;;6.00;3.97;;;;;;;;;;5087267;28;20480;-47
2023/02/23 17:12:47;;;;;;;5.75;3.65;;;;;;;;;;5087606;28;20028;-47
2023/02/23 17:15:15;;;;;;;7.28;4.22;;;;;;;;;;5087368;28;20499;-47
2023/02/23 17:17:41;;;;;;;7.88;5.05;;;;;;;;;;5087195;28;20059;-45
2023/02/23 17:20:14;;;;;;;13.77;7.00;;;;;;;;;;5086406;28;20115;-49
2023/02/23 17:22:41;;;;;;;11.25;6.78;;;;;;;;;;5086557;28;20054;-46
2023/02/23 17:25:07;;;;;;;10.95;7.10;;;;;;;;;;5087003;28;20020;-47
2023/02/23 17:27:33;;;;;;;13.43;6.80;;;;;;;;;;5087168;28;20483;-48
2023/02/23 17:29:59;;;;;;;10.73;6.55;;;;;;;;;;5102743;28;20557;-47
2023/02/23 17:32:25;;;;;;;8.27;5.72;;;;;;;;;;5087524;28;20024;-48
2023/02/23 17:34:52;;;;;;;12.35;6.85;;;;;;;;;;5086681;28;20031;-47
2023/02/23 17:37:19;;;;;;;15.52;7.40;;;;;;;;;;5087185;28;20029;-46
2023/02/23 17:39:48;;;;;;;11.25;6.85;;;;;;;;;;5086836;28;20024;-47
2023/02/23 17:42:14;;;;;;;15.63;7.88;;;;;;;;;;5087097;28;20032;-47
2023/02/23 17:44:41;;;;;;;14.05;8.25;;;;;;;;;;5086784;28;20016;-50
2023/02/23 17:47:08;;;;;;;11.75;7.90;;;;;;;;;;5086877;28;20032;-46
2023/02/23 17:49:34;;;;;;;13.48;7.82;;;;;;;;;;5087527;28;20738;-48
2023/02/23 17:52:01;;;;;;;10.68;6.38;;;;;;;;;;5086932;28;20506;-46
2023/02/23 17:54:28;;;;;;;9.10;6.00;;;;;;;;;;5084994;28;20060;-47
2023/02/23 17:56:54;;;;;;;8.52;5.47;;;;;;;;;;5085648;28;20028;-49
2023/02/23 17:59:20;;;;;;;9.38;5.10;;;;;;;;;;5085102;28;20047;-49
2023/02/23 18:01:48;;;;;;;6.53;4.65;;;;;;;;;;5085837;28;20032;-47
2023/02/23 18:04:14;;;;;;;9.20;4.97;;;;;;;;;;5087048;28;20528;-49
2023/02/23 18:06:40;;;;;;;8.82;5.40;;;;;;;;;;5084684;28;20093;-51
2023/02/23 18:09:07;;;;;;;8.25;5.22;;;;;;;;;;5085061;28;20522;-48
2023/02/23 18:11:33;;;;;;;8.75;5.18;;;;;;;;;;5084560;28;20036;-48
2023/02/23 18:14:00;;;;;;;8.90;4.80;;;;;;;;;;5084967;28;20423;-48
2023/02/23 18:16:26;;;;;;;9.73;6.43;;;;;;;;;;5084436;28;20115;-49
2023/02/23 18:18:52;;;;;;;11.27;7.20;;;;;;;;;;5085597;28;20454;-48
2023/02/23 18:21:20;;;;;;;17.38;9.82;;;;;;;;;;5085065;28;20024;-48
2023/02/23 18:23:46;;;;;;;14.15;9.32;;;;;;;;;;5085513;28;20043;-48
2023/02/23 18:26:18;;;;;;;10.50;7.40;;;;;;;;;;5085183;28;20032;-50
2023/02/23 18:28:45;;;;;;;12.85;8.38;;;;;;;;;;5085581;28;20032;-49
2023/02/23 18:31:13;;;;;;;13.95;8.98;;;;;;;;;;5066516;28;20114;-50
2023/02/23 18:33:39;;;;;;;15.48;9.70;;;;;;;;;;5087066;28;20032;-47
2023/02/23 18:36:15;;;;;;;15.77;9.45;;;;;;;;;;5088631;28;20024;-49
2023/02/23 18:38:42;;;;;;;16.13;9.57;;;;;;;;;;5087414;28;20043;-46
2023/02/23 18:41:08;;;;;;;16.33;10.38;;;;;;;;;;5088006;28;20027;-48
2023/02/23 18:43:34;;;;;;;15.27;9.63;;;;;;;;;;5087804;28;20020;-50
2023/02/23 18:46:04;;;;;;;10.73;7.60;;;;;;;;;;5088315;28;20135;-49
2023/02/23 18:48:31;;;;;;;13.30;9.15;;;;;;;;;;5088320;28;20061;-48
2023/02/23 18:50:58;;;;;;;14.00;9.10;;;;;;;;;;5088240;28;20035;-49
2023/02/23 18:53:24;;;;;;;16.70;10.40;;;;;;;;;;5088121;28;20028;-49
2023/02/23 18:55:50;;;;;;;16.10;10.07;;;;;;;;;;5088493;28;20337;-48
2023/02/23 18:58:16;;;;;;;11.73;7.60;;;;;;;;;;5088076;28;20077;-48
2023/02/23 19:00:43;;;;;;;11.27;7.47;;;;;;;;;;5104015;28;20491;-51
2023/02/23 19:03:10;;;;;;;12.88;7.97;;;;;;;;;;5087570;28;20016;-49
2023/02/23 19:05:36;;;;;;;8.77;5.82;;;;;;;;;;5086457;28;20047;-52
2023/02/23 19:08:12;;;;;;;9.13;6.30;;;;;;;;;;5088246;28;20407;-49
2023/02/23 19:10:38;;;;;;;8.93;5.50;;;;;;;;;;5091940;28;20119;-49
2023/02/23 19:13:07;;;;;;;8.75;5.55;;;;;;;;;;5084293;28;20093;-48
2023/02/23 19:15:35;;;;;;;8.88;4.93;;;;;;;;;;5087672;28;20035;-47
2023/02/23 19:18:02;;;;;;;9.25;5.45;;;;;;;;;;5088242;28;20679;-48
2023/02/23 19:20:34;;;;;;;7.25;5.20;;;;;;;;;;5093329;28;20044;-49
2023/02/23 19:23:03;;;;;;;8.35;5.63;;;;;;;;;;5087445;28;20143;-49
2023/02/23 19:25:31;;;;;;;7.38;5.40;;;;;;;;;;5098885;28;20024;-47
2023/02/23 19:27:57;;;;;;;12.25;7.80;;;;;;;;;;5086738;28;20035;-46
2023/02/23 19:30:23;;;;;;;11.10;7.20;;;;;;;;;;5087310;28;20411;-47
2023/02/23 19:32:49;;;;;;;12.10;7.15;;;;;;;;;;5088943;28;20468;-49
2023/02/23 19:35:15;;;;;;;10.23;6.22;;;;;;;;;;5088437;28;20035;-48
2023/02/23 19:37:48;;;;;;;8.55;6.07;;;;;;;;;;5088397;28;20023;-47
2023/02/23 19:40:18;;;;;;;10.13;6.97;;;;;;;;;;5088338;28;20520;-48
2023/02/23 19:42:44;;;;;;;14.70;6.57;;;;;;;;;;5088375;28;20024;-49
2023/02/23 19:45:14;;;;;;;9.20;5.28;;;;;;;;;;5088107;28;20081;-49
2023/02/23 19:47:40;;;;;;;7.80;5.40;;;;;;;;;;5088242;28;20040;-48
2023/02/23 19:50:11;;;;;;;7.10;5.07;;;;;;;;;;5088171;28;20058;-48
2023/02/23 19:52:40;;;;;;;8.50;5.85;;;;;;;;;;5087888;28;20102;-47
2023/02/23 19:55:06;;;;;;;10.95;7.35;;;;;;;;;;5088201;28;20545;-50
2023/02/23 19:57:32;;;;;;;11.25;6.57;;;;;;;;;;5088209;28;20036;-51
2023/02/23 19:59:58;;;;;;;8.15;5.35;;;;;;;;;;5087867;28;20023;-48
2023/02/23 20:02:24;;;;;;;5.93;4.68;;;;;;;;;;5087597;28;20024;-49